createdAt,value
2018-06-24T00:01:10.623Z,18.65
2018-06-24T00:03:15.971Z,18.66
2018-06-24T00:05:21.375Z,18.68
2018-06-24T00:07:26.817Z,18.70
2018-06-24T00:09:32.150Z,18.74
2018-06-24T00:11:37.585Z,18.81
2018-06-24T00:13:43.028Z,18.89
2018-06-24T00:15:48.359Z,18.95
2018-06-24T00:17:53.878Z,18.99
2018-06-24T00:19:59.555Z,19.00
2018-06-24T00:22:04.946Z,19.01
2018-06-24T00:24:10.429Z,19.01
2018-06-24T00:26:15.699Z,18.95
2018-06-24T00:28:20.996Z,18.83
2018-06-24T00:30:26.417Z,18.71
2018-06-24T00:32:32.468Z,18.59
2018-06-24T00:34:37.775Z,18.50
2018-06-24T00:36:43.005Z,18.44
2018-06-24T00:38:48.719Z,18.37
2018-06-24T00:40:54.334Z,18.33
2018-06-24T00:42:59.841Z,18.29
2018-06-24T00:45:05.248Z,18.24
2018-06-24T00:47:10.895Z,18.18
2018-06-24T00:49:16.290Z,18.10
2018-06-24T00:51:21.680Z,18.04
2018-06-24T00:53:27.379Z,17.97
2018-06-24T00:55:32.792Z,17.92
2018-06-24T00:57:38.133Z,17.91
2018-06-24T01:00:00.100Z,17.88
2018-06-24T01:02:05.634Z,17.77
2018-06-24T01:04:10.991Z,17.71
2018-06-24T01:06:16.656Z,17.75
2018-06-24T01:08:23.461Z,17.84
2018-06-24T01:10:28.491Z,17.87
2018-06-24T01:12:33.970Z,17.79
2018-06-24T01:14:39.321Z,17.71
2018-06-24T01:16:44.683Z,17.65
2018-06-24T01:18:50.600Z,17.63
2018-06-24T01:20:56.020Z,17.61
2018-06-24T01:23:01.712Z,17.55
2018-06-24T01:25:08.079Z,17.47
2018-06-24T01:27:13.559Z,17.43
2018-06-24T01:29:18.618Z,17.38
2018-06-24T01:31:23.893Z,17.34
2018-06-24T01:33:29.364Z,17.30
2018-06-24T01:35:35.498Z,17.26
2018-06-24T01:37:40.829Z,17.22
2018-06-24T01:39:47.751Z,17.17
2018-06-24T01:41:53.147Z,17.13
2018-06-24T01:43:58.504Z,17.08
2018-06-24T01:46:06.972Z,17.03
2018-06-24T01:48:12.563Z,17.03
2018-06-24T01:50:18.051Z,17.02
2018-06-24T01:52:23.600Z,17.01
2018-06-24T01:54:29.075Z,17.00
2018-06-24T01:56:34.586Z,16.98
2018-06-24T01:58:39.915Z,16.96
2018-06-24T02:00:45.431Z,16.92
2018-06-24T02:02:51.049Z,16.88
2018-06-24T02:04:56.423Z,16.83
2018-06-24T02:07:02.089Z,16.80
2018-06-24T02:09:11.866Z,16.77
2018-06-24T02:11:17.107Z,16.76
2018-06-24T02:13:23.517Z,16.75
2018-06-24T02:15:28.836Z,16.76
2018-06-24T02:17:34.260Z,16.76
2018-06-24T02:19:39.694Z,16.73
2018-06-24T02:21:45.067Z,16.70
2018-06-24T02:23:50.506Z,16.66
2018-06-24T02:25:55.970Z,16.63
2018-06-24T02:28:01.305Z,16.64
2018-06-24T02:30:06.704Z,16.66
2018-06-24T02:32:12.331Z,16.74
2018-06-24T02:34:17.793Z,16.82
2018-06-24T02:36:23.646Z,16.87
2018-06-24T02:38:29.012Z,16.89
2018-06-24T02:40:34.976Z,16.92
2018-06-24T02:42:40.227Z,16.94
2018-06-24T02:44:45.938Z,16.90
2018-06-24T02:46:51.478Z,16.81
2018-06-24T02:48:56.897Z,16.71
2018-06-24T02:51:02.290Z,16.64
2018-06-24T02:53:07.711Z,16.56
2018-06-24T02:55:13.011Z,16.52
2018-06-24T02:57:18.322Z,16.52
2018-06-24T02:59:23.326Z,16.55
2018-06-24T03:01:28.685Z,16.60
2018-06-24T03:03:34.032Z,16.62
2018-06-24T03:05:39.751Z,16.64
2018-06-24T03:07:45.333Z,16.63
2018-06-24T03:09:51.552Z,16.61
2018-06-24T03:11:57.040Z,16.65
2018-06-24T03:14:02.324Z,16.65
2018-06-24T03:16:07.778Z,16.61
2018-06-24T03:18:13.247Z,16.56
2018-06-24T03:20:18.591Z,16.52
2018-06-24T03:22:24.626Z,16.48
2018-06-24T03:24:30.042Z,16.46
2018-06-24T03:26:35.313Z,16.48
2018-06-24T03:28:41.436Z,16.50
2018-06-24T03:30:46.778Z,16.51
2018-06-24T03:32:52.444Z,16.56
2018-06-24T03:34:57.742Z,16.57
2018-06-24T03:37:03.215Z,16.53
2018-06-24T03:39:10.948Z,16.48
2018-06-24T03:41:16.272Z,16.37
2018-06-24T03:43:21.614Z,16.31
2018-06-24T03:45:27.431Z,16.25
2018-06-24T03:47:32.816Z,16.21
2018-06-24T03:49:38.365Z,16.19
2018-06-24T03:51:43.751Z,16.19
2018-06-24T03:53:49.036Z,16.18
2018-06-24T03:55:54.627Z,16.23
2018-06-24T03:57:59.988Z,16.24
2018-06-24T04:00:05.889Z,16.26
2018-06-24T04:02:11.139Z,16.33
2018-06-24T04:04:16.417Z,16.40
2018-06-24T04:06:22.260Z,16.52
2018-06-24T04:08:27.599Z,16.57
2018-06-24T04:10:32.899Z,16.64
2018-06-24T04:12:38.382Z,16.69
2018-06-24T04:14:43.679Z,16.76
2018-06-24T04:16:49.049Z,16.82
2018-06-24T04:18:54.479Z,16.85
2018-06-24T04:20:59.886Z,16.91
2018-06-24T04:23:04.933Z,17.00
2018-06-24T04:25:10.760Z,17.06
2018-06-24T04:27:16.070Z,17.11
2018-06-24T04:29:21.391Z,17.18
2018-06-24T04:31:26.791Z,17.25
2018-06-24T04:33:32.350Z,17.32
2018-06-24T04:35:37.772Z,17.38
2018-06-24T04:37:43.120Z,17.42
2018-06-24T04:39:48.496Z,17.49
2018-06-24T04:41:54.169Z,17.55
2018-06-24T04:43:59.482Z,17.60
2018-06-24T04:46:04.883Z,17.64
2018-06-24T04:48:10.230Z,17.69
2018-06-24T04:50:15.624Z,17.78
2018-06-24T04:52:21.047Z,17.84
2018-06-24T04:54:26.494Z,17.90
2018-06-24T04:56:31.862Z,17.90
2018-06-24T04:58:37.300Z,17.86
2018-06-24T05:00:42.711Z,17.85
2018-06-24T05:02:48.120Z,17.89
2018-06-24T05:04:53.487Z,17.97
2018-06-24T05:06:58.788Z,18.05
2018-06-24T05:09:05.912Z,18.14
2018-06-24T05:11:11.280Z,18.24
2018-06-24T05:13:16.694Z,18.30
2018-06-24T05:15:22.017Z,18.33
2018-06-24T05:17:27.391Z,18.33
2018-06-24T05:19:32.615Z,18.28
2018-06-24T05:21:37.900Z,18.24
2018-06-24T05:23:43.363Z,18.23
2018-06-24T05:25:48.727Z,18.22
2018-06-24T05:27:54.064Z,18.25
2018-06-24T05:29:59.442Z,18.29
2018-06-24T05:32:04.852Z,18.33
2018-06-24T05:34:10.162Z,18.43
2018-06-24T05:36:16.456Z,18.56
2018-06-24T05:38:21.803Z,18.71
2018-06-24T05:40:27.343Z,18.79
2018-06-24T05:42:32.759Z,18.89
2018-06-24T05:44:38.222Z,19.02
2018-06-24T05:46:43.662Z,19.17
2018-06-24T05:48:49.206Z,19.29
2018-06-24T05:50:54.510Z,19.42
2018-06-24T05:52:59.981Z,19.49
2018-06-24T05:55:05.578Z,19.56
2018-06-24T05:57:10.892Z,19.62
2018-06-24T05:59:16.309Z,19.68
2018-06-24T06:01:21.584Z,19.74
2018-06-24T06:03:26.671Z,19.80
2018-06-24T06:05:31.927Z,19.88
2018-06-24T06:07:37.320Z,19.98
2018-06-24T06:09:42.854Z,20.02
2018-06-24T06:11:48.229Z,20.07
2018-06-24T06:13:53.632Z,20.15
2018-06-24T06:15:59.158Z,20.23
2018-06-24T06:18:04.615Z,20.32
2018-06-24T06:20:10.582Z,20.38
2018-06-24T06:22:16.066Z,20.40
2018-06-24T06:24:21.369Z,20.46
2018-06-24T06:26:26.808Z,20.56
2018-06-24T06:28:32.285Z,20.74
2018-06-24T06:30:37.679Z,20.92
2018-06-24T06:32:43.128Z,21.09
2018-06-24T06:34:48.492Z,21.25
2018-06-24T06:36:53.893Z,21.43
2018-06-24T06:38:59.381Z,21.63
2018-06-24T06:41:04.669Z,21.84
2018-06-24T06:43:10.053Z,22.01
2018-06-24T06:45:15.497Z,22.25
2018-06-24T06:47:20.826Z,22.68
2018-06-24T06:49:26.280Z,23.00
2018-06-24T06:51:31.820Z,23.27
2018-06-24T06:53:37.158Z,23.57
2018-06-24T06:55:42.496Z,23.94
2018-06-24T06:57:47.967Z,24.39
2018-06-24T06:59:53.291Z,24.68
2018-06-24T07:01:58.723Z,24.85
2018-06-24T07:04:04.749Z,24.98
2018-06-24T07:06:10.120Z,25.04
2018-06-24T07:08:15.436Z,25.12
2018-06-24T07:10:20.757Z,25.21
2018-06-24T07:12:26.179Z,25.19
2018-06-24T07:14:31.603Z,25.19
2018-06-24T07:16:37.040Z,25.24
2018-06-24T07:18:42.351Z,25.44
2018-06-24T07:20:47.720Z,25.73
2018-06-24T07:22:53.179Z,25.89
2018-06-24T07:24:58.566Z,25.89
2018-06-24T07:27:04.118Z,25.91
2018-06-24T07:29:09.858Z,25.91
2018-06-24T07:31:15.220Z,25.73
2018-06-24T07:33:20.603Z,25.53
2018-06-24T07:35:25.954Z,25.33
2018-06-24T07:37:30.998Z,25.14
2018-06-24T07:39:36.543Z,24.95
2018-06-24T07:41:41.954Z,24.76
2018-06-24T07:43:47.508Z,24.61
2018-06-24T07:45:52.889Z,24.49
2018-06-24T07:47:58.312Z,24.40
2018-06-24T07:50:03.747Z,24.36
2018-06-24T07:52:09.216Z,24.35
2018-06-24T07:54:14.965Z,24.32
2018-06-24T07:56:20.310Z,24.20
2018-06-24T07:58:25.765Z,24.14
2018-06-24T08:00:31.384Z,24.07
2018-06-24T08:02:37.061Z,24.04
2018-06-24T08:04:42.460Z,23.99
2018-06-24T08:06:47.830Z,23.93
2018-06-24T08:08:53.291Z,23.90
2018-06-24T08:10:58.773Z,23.83
2018-06-24T08:13:04.302Z,23.73
2018-06-24T08:15:09.743Z,23.65
2018-06-24T08:17:15.086Z,23.64
2018-06-24T08:19:20.598Z,23.65
2018-06-24T08:21:25.993Z,23.66
2018-06-24T08:23:31.396Z,23.68
2018-06-24T08:25:36.853Z,23.76
2018-06-24T08:27:42.266Z,23.87
2018-06-24T08:29:47.611Z,23.90
2018-06-24T08:31:53.470Z,23.90
2018-06-24T08:33:58.784Z,23.95
2018-06-24T08:36:05.172Z,24.06
2018-06-24T08:38:10.539Z,24.17
2018-06-24T08:40:15.909Z,24.24
2018-06-24T08:42:20.988Z,24.31
2018-06-24T08:44:26.290Z,24.37
2018-06-24T08:46:31.725Z,24.36
2018-06-24T08:48:37.202Z,24.38
2018-06-24T08:50:42.584Z,24.40
2018-06-24T08:52:47.965Z,24.38
2018-06-24T08:54:53.346Z,24.42
2018-06-24T08:56:58.716Z,24.44
2018-06-24T08:59:04.271Z,24.45
2018-06-24T09:01:09.564Z,24.46
2018-06-24T09:03:15.042Z,24.45
2018-06-24T09:05:20.346Z,24.42
2018-06-24T09:07:25.730Z,24.41
2018-06-24T09:09:31.118Z,24.40
2018-06-24T09:11:36.608Z,24.41
2018-06-24T09:13:41.983Z,24.44
2018-06-24T09:15:47.391Z,24.47
2018-06-24T09:17:52.748Z,24.54
2018-06-24T09:19:58.169Z,24.60
2018-06-24T09:22:03.796Z,24.64
2018-06-24T09:24:09.320Z,24.65
2018-06-24T09:26:14.718Z,24.66
2018-06-24T09:28:20.735Z,24.63
2018-06-24T09:30:26.134Z,24.61
2018-06-24T09:32:31.502Z,24.59
2018-06-24T09:34:36.948Z,24.59
2018-06-24T09:36:42.356Z,24.59
2018-06-24T09:38:47.826Z,24.56
2018-06-24T09:40:53.251Z,24.65
2018-06-24T09:42:58.685Z,24.68
2018-06-24T09:45:04.109Z,24.65
2018-06-24T09:47:09.228Z,24.69
2018-06-24T09:49:14.534Z,24.71
2018-06-24T09:51:19.978Z,24.76
2018-06-24T09:53:25.356Z,24.83
2018-06-24T09:55:30.751Z,24.86
2018-06-24T09:57:36.688Z,24.80
2018-06-24T09:59:42.086Z,24.72
2018-06-24T10:01:47.603Z,24.71
2018-06-24T10:03:53.040Z,24.74
2018-06-24T10:05:58.422Z,24.74
2018-06-24T10:08:04.000Z,24.71
2018-06-24T10:10:09.466Z,24.74
2018-06-24T10:12:14.981Z,24.80
2018-06-24T10:14:20.679Z,24.89
2018-06-24T10:16:26.229Z,24.96
2018-06-24T10:18:31.583Z,25.01
2018-06-24T10:20:37.112Z,25.08
2018-06-24T10:22:42.451Z,25.09
2018-06-24T10:24:47.741Z,25.12
2018-06-24T10:26:53.128Z,25.19
2018-06-24T10:28:58.459Z,25.23
2018-06-24T10:31:03.567Z,25.24
2018-06-24T10:33:09.153Z,25.24
2018-06-24T10:35:14.538Z,25.25
2018-06-24T10:37:20.119Z,25.24
2018-06-24T10:39:27.028Z,25.22
2018-06-24T10:41:32.462Z,25.11
2018-06-24T10:43:37.894Z,25.01
2018-06-24T10:45:43.376Z,24.95
2018-06-24T10:47:48.800Z,25.00
2018-06-24T10:49:54.268Z,25.05
2018-06-24T10:51:59.789Z,25.08
2018-06-24T10:54:05.802Z,25.05
2018-06-24T10:56:11.254Z,25.05
2018-06-24T10:58:17.264Z,25.02
2018-06-24T11:00:23.530Z,24.98
2018-06-24T11:02:29.012Z,24.96
2018-06-24T11:04:36.516Z,24.99
2018-06-24T11:06:42.079Z,24.99
2018-06-24T11:08:47.568Z,24.94
2018-06-24T11:10:52.964Z,24.92
2018-06-24T11:12:58.346Z,24.93
2018-06-24T11:15:03.775Z,24.94
2018-06-24T11:17:09.226Z,24.97
2018-06-24T11:19:14.654Z,25.02
2018-06-24T11:21:19.755Z,25.08
2018-06-24T11:23:25.036Z,25.09
2018-06-24T11:25:30.380Z,25.11
2018-06-24T11:27:35.868Z,25.13
2018-06-24T11:29:41.183Z,25.12
2018-06-24T11:31:46.604Z,25.11
2018-06-24T11:33:52.141Z,25.13
2018-06-24T11:35:57.744Z,25.17
2018-06-24T11:38:03.305Z,25.19
2018-06-24T11:40:08.767Z,25.27
2018-06-24T11:42:14.104Z,25.35
2018-06-24T11:44:22.371Z,25.42
2018-06-24T11:46:28.307Z,25.46
2018-06-24T11:48:33.730Z,25.49
2018-06-24T11:50:39.740Z,25.54
2018-06-24T11:52:45.364Z,25.56
2018-06-24T11:57:06.848Z,25.63
2018-06-24T11:59:12.300Z,25.66
2018-06-24T12:01:17.926Z,25.67
2018-06-24T12:03:24.635Z,25.68
2018-06-24T12:05:29.980Z,25.62
2018-06-24T12:07:39.853Z,25.64
2018-06-24T12:09:45.350Z,25.69
2018-06-24T12:11:50.717Z,25.66
2018-06-24T12:13:56.086Z,25.61
2018-06-24T12:16:01.452Z,25.54
2018-06-24T12:18:07.658Z,25.52
2018-06-24T12:20:13.042Z,25.58
2018-06-24T12:22:18.392Z,25.65
2018-06-24T12:24:24.558Z,25.72
2018-06-24T12:26:30.527Z,25.82
2018-06-24T12:28:35.966Z,25.89
2018-06-24T12:30:41.570Z,25.97
2018-06-24T12:32:46.959Z,25.99
2018-06-24T12:34:52.383Z,26.01
2018-06-24T12:36:57.854Z,26.05
2018-06-24T12:39:04.391Z,26.03
2018-06-24T12:41:09.911Z,26.00
2018-06-24T12:43:15.330Z,25.97
2018-06-24T12:45:21.688Z,25.99
2018-06-24T12:47:27.075Z,26.04
2018-06-24T12:49:32.587Z,26.07
2018-06-24T12:51:38.842Z,26.06
2018-06-24T12:53:43.966Z,26.02
2018-06-24T12:55:49.311Z,26.01
2018-06-24T12:57:55.923Z,26.05
2018-06-24T13:00:01.831Z,26.10
2018-06-24T13:02:06.841Z,26.11
2018-06-24T13:04:12.285Z,26.14
2018-06-24T13:06:17.723Z,26.15
2018-06-24T13:08:23.154Z,26.14
2018-06-24T13:10:28.627Z,26.16
2018-06-24T13:12:34.041Z,26.21
2018-06-24T13:14:39.491Z,26.26
2018-06-24T13:16:44.875Z,26.29
2018-06-24T13:18:50.346Z,26.31
2018-06-24T13:20:55.727Z,26.30
2018-06-24T13:23:01.174Z,26.35
2018-06-24T13:25:06.625Z,26.37
2018-06-24T13:27:12.082Z,26.41
2018-06-24T13:29:17.793Z,26.39
2018-06-24T13:31:23.204Z,26.33
2018-06-24T13:33:28.643Z,26.32
2018-06-24T13:35:33.980Z,26.34
2018-06-24T13:37:39.075Z,26.36
2018-06-24T13:39:44.418Z,26.41
2018-06-24T13:41:49.801Z,26.49
2018-06-24T13:43:55.290Z,26.53
2018-06-24T13:46:00.781Z,26.59
2018-06-24T13:48:06.687Z,26.61
2018-06-24T13:50:12.116Z,26.61
2018-06-24T13:52:17.550Z,26.64
2018-06-24T13:54:23.067Z,26.65
2018-06-24T13:56:29.106Z,26.64
2018-06-24T13:58:34.516Z,26.64
2018-06-24T14:00:39.977Z,26.68
2018-06-24T14:02:45.459Z,26.79
2018-06-24T14:04:51.153Z,26.85
2018-06-24T14:06:56.551Z,26.85
2018-06-24T14:09:01.997Z,26.80
2018-06-24T14:11:07.598Z,26.80
2018-06-24T14:13:13.151Z,26.78
2018-06-24T14:15:18.644Z,26.79
2018-06-24T14:17:25.055Z,26.84
2018-06-24T14:19:30.199Z,26.92
2018-06-24T14:21:35.559Z,27.03
2018-06-24T14:23:41.039Z,27.08
2018-06-24T14:25:46.594Z,27.12
2018-06-24T14:27:52.091Z,27.15
2018-06-24T14:29:57.603Z,27.12
2018-06-24T14:32:03.048Z,27.04
2018-06-24T14:34:08.581Z,26.95
2018-06-24T14:36:14.030Z,26.91
2018-06-24T14:38:19.516Z,26.89
2018-06-24T14:40:24.964Z,26.90
2018-06-24T14:42:30.511Z,26.87
2018-06-24T14:44:36.036Z,26.81
2018-06-24T14:46:41.325Z,26.71
2018-06-24T14:48:46.794Z,26.71
2018-06-24T14:50:52.214Z,26.73
2018-06-24T14:52:57.610Z,26.80
2018-06-24T14:55:02.704Z,26.88
2018-06-24T14:57:08.011Z,26.95
2018-06-24T14:59:13.428Z,27.03
2018-06-24T15:01:18.884Z,27.09
2018-06-24T15:03:24.978Z,27.15
2018-06-24T15:05:30.447Z,27.19
2018-06-24T15:07:35.877Z,27.23
2018-06-24T15:09:41.295Z,27.23
2018-06-24T15:11:46.709Z,27.19
2018-06-24T15:13:52.183Z,27.16
2018-06-24T15:15:57.612Z,27.21
2018-06-24T15:18:03.040Z,27.22
2018-06-24T15:20:08.573Z,27.27
2018-06-24T15:22:13.963Z,27.31
2018-06-24T15:24:19.456Z,27.32
2018-06-24T15:26:25.100Z,27.28
2018-06-24T15:28:30.478Z,27.24
2018-06-24T15:30:35.997Z,27.25
2018-06-24T15:32:41.390Z,27.25
2018-06-24T15:34:46.877Z,27.24
2018-06-24T15:36:52.239Z,27.20
2018-06-24T15:38:57.635Z,27.14
2018-06-24T15:41:03.108Z,27.09
2018-06-24T15:43:08.178Z,27.04
2018-06-24T15:45:13.484Z,26.98
2018-06-24T15:47:18.892Z,26.90
2018-06-24T15:49:25.103Z,26.85
2018-06-24T15:51:30.561Z,26.82
2018-06-24T15:53:35.993Z,26.85
2018-06-24T15:55:41.478Z,26.80
2018-06-24T15:57:46.975Z,26.74
2018-06-24T15:59:52.372Z,26.66
2018-06-24T16:01:57.494Z,26.61
2018-06-24T16:04:02.942Z,26.54
2018-06-24T16:06:08.420Z,26.49
2018-06-24T16:08:14.546Z,26.48
2018-06-24T16:10:20.000Z,26.48
2018-06-24T16:12:25.649Z,26.45
2018-06-24T16:14:31.019Z,26.41
2018-06-24T16:16:37.153Z,26.35
2018-06-24T16:18:42.613Z,26.28
2018-06-24T16:20:48.114Z,26.24
2018-06-24T16:22:53.552Z,26.23
2018-06-24T16:24:58.973Z,26.20
2018-06-24T16:27:04.485Z,26.14
2018-06-24T16:29:09.880Z,26.13
2018-06-24T16:31:15.424Z,26.14
2018-06-24T16:33:21.064Z,26.11
2018-06-24T16:35:26.592Z,26.08
2018-06-24T16:37:31.675Z,26.05
2018-06-24T16:39:37.034Z,26.03
2018-06-24T16:41:42.516Z,26.02
2018-06-24T16:43:47.894Z,25.98
2018-06-24T16:45:54.222Z,25.94
2018-06-24T16:47:59.615Z,25.88
2018-06-24T16:50:05.186Z,25.81
2018-06-24T16:52:10.617Z,25.79
2018-06-24T16:54:15.787Z,25.75
2018-06-24T16:56:21.092Z,25.69
2018-06-24T16:58:26.614Z,25.67
2018-06-24T17:00:32.028Z,25.62
2018-06-24T17:02:37.862Z,25.58
2018-06-24T17:04:43.273Z,25.54
2018-06-24T17:06:48.465Z,25.50
2018-06-24T17:08:53.801Z,25.48
2018-06-24T17:10:59.157Z,25.43
2018-06-24T17:13:04.644Z,25.40
2018-06-24T17:15:09.993Z,25.37
2018-06-24T17:17:15.446Z,25.33
2018-06-24T17:19:20.956Z,25.29
2018-06-24T17:21:26.468Z,25.27
2018-06-24T17:23:31.954Z,25.24
2018-06-24T17:25:37.473Z,25.21
2018-06-24T17:27:42.906Z,25.19
2018-06-24T17:29:49.395Z,25.18
2018-06-24T17:31:54.862Z,25.16
2018-06-24T17:34:00.278Z,25.15
2018-06-24T17:36:05.894Z,25.12
2018-06-24T17:38:11.431Z,25.10
2018-06-24T17:40:16.890Z,25.10
2018-06-24T17:42:23.415Z,25.09
2018-06-24T17:44:28.915Z,25.09
2018-06-24T17:46:34.334Z,25.08
2018-06-24T17:48:39.750Z,25.05
2018-06-24T17:50:45.188Z,25.04
2018-06-24T17:52:50.566Z,25.03
2018-06-24T17:54:55.966Z,25.01
2018-06-24T17:57:01.441Z,24.98
2018-06-24T17:59:06.944Z,24.96
2018-06-24T18:01:12.345Z,24.93
2018-06-24T18:03:17.876Z,24.91
2018-06-24T18:05:23.373Z,24.91
2018-06-24T18:07:28.957Z,24.92
2018-06-24T18:09:34.497Z,24.91
2018-06-24T18:11:40.104Z,24.88
2018-06-24T18:13:45.596Z,24.87
2018-06-24T18:15:50.898Z,24.84
2018-06-24T18:17:56.343Z,24.82
2018-06-24T18:20:01.861Z,24.80
2018-06-24T18:22:07.435Z,24.80
2018-06-24T18:24:12.829Z,24.82
2018-06-24T18:26:18.244Z,24.81
2018-06-24T18:28:23.843Z,24.83
2018-06-24T18:30:29.280Z,24.84
2018-06-24T18:32:34.790Z,24.85
2018-06-24T18:34:40.810Z,24.83
2018-06-24T18:36:46.397Z,24.78
2018-06-24T18:38:51.902Z,24.75
2018-06-24T18:40:57.257Z,24.74
2018-06-24T18:43:02.723Z,24.73
2018-06-24T18:45:08.233Z,24.74
2018-06-24T18:47:13.828Z,24.76
2018-06-24T18:49:19.421Z,24.77
2018-06-24T18:51:25.687Z,24.77
2018-06-24T18:53:30.774Z,24.72
2018-06-24T18:55:36.736Z,24.70
2018-06-24T18:57:42.295Z,24.65
2018-06-24T18:59:47.973Z,24.62
2018-06-24T19:01:53.177Z,24.59
2018-06-24T19:03:58.551Z,24.59
2018-06-24T19:06:04.077Z,24.56
2018-06-24T19:08:09.462Z,24.54
2018-06-24T19:10:14.851Z,24.50
2018-06-24T19:12:20.362Z,24.49
2018-06-24T19:14:25.491Z,24.49
2018-06-24T19:16:31.049Z,24.47
2018-06-24T19:18:36.525Z,24.46
2018-06-24T19:20:42.050Z,24.46
2018-06-24T19:22:47.668Z,24.44
2018-06-24T19:24:53.140Z,24.41
2018-06-24T19:26:58.759Z,24.39
2018-06-24T19:29:04.139Z,24.38
2018-06-24T19:31:09.627Z,24.35
2018-06-24T19:33:15.114Z,24.31
2018-06-24T19:35:21.170Z,24.28
2018-06-24T19:37:26.742Z,24.25
2018-06-24T19:39:32.200Z,24.22
2018-06-24T19:41:37.736Z,24.21
2018-06-24T19:43:44.024Z,24.17
2018-06-24T19:45:49.668Z,24.12
2018-06-24T19:47:54.769Z,24.07
2018-06-24T19:50:00.200Z,24.03
2018-06-24T19:52:05.670Z,24.00
2018-06-24T19:54:11.327Z,23.96
2018-06-24T19:56:16.854Z,23.91
2018-06-24T19:58:22.300Z,23.89
2018-06-24T20:00:27.756Z,23.86
2018-06-24T20:02:32.816Z,23.83
2018-06-24T20:04:38.170Z,23.78
2018-06-24T20:06:43.627Z,23.74
2018-06-24T20:08:49.090Z,23.73
2018-06-24T20:10:54.461Z,23.70
2018-06-24T20:13:00.028Z,23.69
2018-06-24T20:15:05.545Z,23.69
2018-06-24T20:17:11.115Z,23.72
2018-06-24T20:19:16.596Z,23.72
2018-06-24T20:21:22.040Z,23.72
2018-06-24T20:23:27.825Z,23.70
2018-06-24T20:25:33.230Z,23.69
2018-06-24T20:27:38.855Z,23.68
2018-06-24T20:29:44.133Z,23.68
2018-06-24T20:31:49.472Z,23.66
2018-06-24T20:33:54.928Z,23.60
2018-06-24T20:36:00.397Z,23.57
2018-06-24T20:38:06.467Z,23.54
2018-06-24T20:40:11.969Z,23.52
2018-06-24T20:42:17.590Z,23.50
2018-06-24T20:44:23.908Z,23.46
2018-06-24T20:46:29.402Z,23.42
2018-06-24T20:48:34.801Z,23.38
2018-06-24T20:50:40.232Z,23.36
2018-06-24T20:52:46.016Z,23.35
2018-06-24T20:54:51.469Z,23.36
2018-06-24T20:56:56.902Z,23.37
2018-06-24T20:59:02.319Z,23.34
2018-06-24T21:01:07.921Z,23.35
2018-06-24T21:03:13.466Z,23.35
2018-06-24T21:05:18.915Z,23.34
2018-06-24T21:07:25.824Z,23.34
2018-06-24T21:09:31.234Z,23.34
2018-06-24T21:11:36.693Z,23.34
2018-06-24T21:13:42.131Z,23.34
2018-06-24T21:15:47.620Z,23.34
2018-06-24T21:17:53.083Z,23.34
2018-06-24T21:19:58.519Z,23.33
2018-06-24T21:22:03.909Z,23.31
2018-06-24T21:24:09.352Z,23.26
2018-06-24T21:26:14.790Z,23.25
2018-06-24T21:28:20.461Z,23.26
2018-06-24T21:30:26.031Z,23.26
2018-06-24T21:32:31.389Z,23.24
2018-06-24T21:34:36.776Z,23.27
2018-06-24T21:36:42.212Z,23.27
2018-06-24T21:38:47.642Z,23.27
2018-06-24T21:40:53.012Z,23.25
2018-06-24T21:42:58.351Z,23.26
2018-06-24T21:45:03.840Z,23.27
2018-06-24T21:47:09.154Z,23.26
2018-06-24T21:49:14.520Z,23.26
2018-06-24T21:51:20.364Z,23.24
2018-06-24T21:53:25.825Z,23.24
2018-06-24T21:55:31.310Z,23.21
2018-06-24T21:57:36.917Z,23.19
2018-06-24T21:59:42.248Z,23.20
2018-06-24T22:01:47.772Z,23.20
2018-06-24T22:03:53.317Z,23.16
2018-06-24T22:05:58.687Z,23.17
2018-06-24T22:08:03.997Z,23.18
2018-06-24T22:10:09.360Z,23.16
2018-06-24T22:12:14.794Z,23.17
2018-06-24T22:14:20.247Z,23.17
2018-06-24T22:16:25.879Z,23.14
2018-06-24T22:18:31.285Z,23.14
2018-06-24T22:20:36.739Z,23.13
2018-06-24T22:22:42.154Z,23.11
2018-06-24T22:24:47.606Z,23.08
2018-06-24T22:26:53.288Z,23.07
2018-06-24T22:28:58.624Z,23.02
2018-06-24T22:31:04.031Z,23.00
2018-06-24T22:33:09.500Z,22.99
2018-06-24T22:35:14.999Z,22.98
2018-06-24T22:37:20.485Z,22.97
2018-06-24T22:39:25.856Z,22.96
2018-06-24T22:41:31.236Z,22.94
2018-06-24T22:43:36.580Z,22.92
2018-06-24T22:45:42.021Z,22.92
2018-06-24T22:47:47.631Z,22.91
2018-06-24T22:49:53.049Z,22.87
2018-06-24T22:51:58.810Z,22.84
2018-06-24T22:54:04.388Z,22.84
2018-06-24T22:56:10.061Z,22.82
2018-06-24T22:58:15.122Z,22.82
2018-06-24T23:00:20.579Z,22.83
2018-06-24T23:02:26.141Z,22.82
2018-06-24T23:04:31.508Z,22.80
2018-06-24T23:06:36.866Z,22.80
2018-06-24T23:08:42.164Z,22.78
2018-06-24T23:10:47.574Z,22.76
2018-06-24T23:12:53.068Z,22.76
2018-06-24T23:14:58.501Z,22.77
2018-06-24T23:17:03.879Z,22.75
2018-06-24T23:19:09.423Z,22.75
2018-06-24T23:21:14.825Z,22.75
2018-06-24T23:23:20.232Z,22.75
2018-06-24T23:25:26.334Z,22.70
2018-06-24T23:27:31.803Z,22.61
2018-06-24T23:29:37.150Z,22.52
2018-06-24T23:31:42.555Z,22.44
2018-06-24T23:33:47.953Z,22.39
2018-06-24T23:35:53.319Z,22.35
2018-06-24T23:37:58.689Z,22.31
2018-06-24T23:40:04.388Z,22.30
2018-06-24T23:42:09.847Z,22.29
2018-06-24T23:44:15.263Z,22.28
2018-06-24T23:46:20.591Z,22.28
2018-06-24T23:48:27.269Z,22.27
2018-06-24T23:50:32.624Z,22.25
2018-06-24T23:52:38.023Z,22.22
2018-06-24T23:54:43.468Z,22.21
2018-06-24T23:56:48.843Z,22.23
2018-06-24T23:58:57.739Z,22.22
